createdAt,value
2022-12-07T00:01:07.884Z,6.38
2022-12-07T00:03:35.067Z,6.18
2022-12-07T00:06:03.301Z,5.45
2022-12-07T00:08:30.797Z,5.72
2022-12-07T00:11:05.403Z,5.68
2022-12-07T00:13:33.989Z,5.55
2022-12-07T00:16:08.027Z,5.68
2022-12-07T00:18:35.034Z,4.68
2022-12-07T00:21:11.685Z,5.40
2022-12-07T00:23:39.234Z,5.60
2022-12-07T00:26:11.393Z,4.63
2022-12-07T00:28:38.332Z,5.03
2022-12-07T00:31:10.761Z,5.20
2022-12-07T00:33:37.994Z,5.25
2022-12-07T00:36:08.102Z,5.43
2022-12-07T00:38:37.044Z,5.78
2022-12-07T00:41:11.294Z,5.68
2022-12-07T00:43:38.509Z,6.35
2022-12-07T00:46:05.219Z,5.07
2022-12-07T00:48:31.822Z,5.00
2022-12-07T00:50:58.668Z,5.57
2022-12-07T00:53:25.570Z,5.47
2022-12-07T00:55:53.502Z,5.57
2022-12-07T00:58:20.636Z,5.20
2022-12-07T01:00:47.177Z,4.93
2022-12-07T01:03:18.193Z,5.18
2022-12-07T01:05:56.053Z,5.10
2022-12-07T01:08:24.204Z,4.53
2022-12-07T01:10:58.650Z,5.10
2022-12-07T01:13:25.197Z,5.43
2022-12-07T01:15:51.768Z,4.95
2022-12-07T01:18:18.299Z,5.72
2022-12-07T01:20:44.883Z,4.85
2022-12-07T01:23:11.444Z,5.05
2022-12-07T01:25:38.040Z,6.75
2022-12-07T01:28:04.729Z,5.60
2022-12-07T01:30:31.279Z,6.15
2022-12-07T01:32:57.844Z,5.60
2022-12-07T01:35:24.457Z,5.20
2022-12-07T01:37:51.051Z,5.13
2022-12-07T01:40:18.889Z,5.70
2022-12-07T01:42:45.531Z,5.50
2022-12-07T01:45:36.858Z,5.40
2022-12-07T01:48:05.044Z,5.47
2022-12-07T01:50:34.468Z,5.07
2022-12-07T01:53:05.383Z,5.47
2022-12-07T01:55:32.100Z,5.45
2022-12-07T01:57:59.115Z,5.05
2022-12-07T02:00:25.775Z,5.75
2022-12-07T02:02:56.771Z,5.93
2022-12-07T02:05:25.804Z,4.55
2022-12-07T02:07:55.758Z,5.95
2022-12-07T02:10:27.804Z,5.47
2022-12-07T02:13:02.611Z,5.28
2022-12-07T02:16:03.106Z,4.88
2022-12-07T02:18:45.678Z,4.32
2022-12-07T02:21:38.802Z,5.93
2022-12-07T02:24:19.969Z,4.15
2022-12-07T02:27:29.085Z,4.40
2022-12-07T02:30:06.150Z,4.10
2022-12-07T02:32:45.068Z,4.40
2022-12-07T02:35:22.911Z,3.88
2022-12-07T02:38:08.010Z,4.22
2022-12-07T02:40:39.133Z,3.90
2022-12-07T02:43:16.257Z,4.70
2022-12-07T02:45:44.895Z,5.32
2022-12-07T02:48:14.633Z,5.75
2022-12-07T02:50:48.837Z,4.70
2022-12-07T02:53:37.796Z,4.75
2022-12-07T02:56:13.379Z,5.30
2022-12-07T02:58:40.038Z,4.82
2022-12-07T03:01:29.120Z,4.10
2022-12-07T03:04:19.310Z,5.13
2022-12-07T03:06:54.464Z,4.32
2022-12-07T03:09:54.105Z,4.18
2022-12-07T03:12:29.103Z,4.95
2022-12-07T03:15:07.287Z,4.53
2022-12-07T03:17:38.766Z,4.63
2022-12-07T03:20:08.649Z,4.90
2022-12-07T03:22:39.476Z,4.35
2022-12-07T03:25:11.677Z,4.70
2022-12-07T03:27:56.771Z,4.75
2022-12-07T03:30:30.736Z,4.93
2022-12-07T03:33:19.151Z,5.30
2022-12-07T03:36:08.867Z,4.63
2022-12-07T03:39:03.070Z,5.28
2022-12-07T03:41:32.796Z,4.93
2022-12-07T03:43:59.853Z,5.63
2022-12-07T03:46:35.213Z,6.10
2022-12-07T03:49:10.032Z,5.63
2022-12-07T03:51:57.153Z,6.47
2022-12-07T03:54:29.707Z,5.90
2022-12-07T03:56:57.976Z,5.93
2022-12-07T03:59:25.392Z,5.40
2022-12-07T04:02:02.030Z,6.03
2022-12-07T04:04:29.048Z,5.97
2022-12-07T04:06:55.676Z,5.72
2022-12-07T04:09:22.395Z,5.68
2022-12-07T04:11:49.433Z,5.57
2022-12-07T04:14:19.371Z,5.97
2022-12-07T04:16:57.765Z,5.90
2022-12-07T04:19:30.011Z,5.70
2022-12-07T04:21:58.158Z,7.15
2022-12-07T04:24:25.740Z,5.97
2022-12-07T04:26:52.712Z,6.30
2022-12-07T04:29:20.416Z,6.35
2022-12-07T04:31:47.048Z,6.53
2022-12-07T04:34:14.533Z,5.63
2022-12-07T04:36:41.505Z,6.03
2022-12-07T04:39:14.368Z,5.68
2022-12-07T04:41:40.922Z,6.00
2022-12-07T04:44:08.445Z,5.70
2022-12-07T04:46:35.147Z,6.15
2022-12-07T04:49:01.777Z,6.18
2022-12-07T04:51:29.838Z,6.25
2022-12-07T04:53:57.171Z,6.10
2022-12-07T04:56:24.945Z,6.32
2022-12-07T04:58:53.386Z,6.30
2022-12-07T05:01:21.346Z,6.38
2022-12-07T05:03:48.168Z,7.30
2022-12-07T05:06:15.399Z,6.30
2022-12-07T05:08:42.930Z,5.35
2022-12-07T05:11:10.469Z,5.75
2022-12-07T05:13:37.364Z,5.60
2022-12-07T05:16:04.333Z,5.50
2022-12-07T05:18:30.970Z,5.93
2022-12-07T05:20:57.513Z,6.10
2022-12-07T05:23:24.093Z,5.97
2022-12-07T05:25:50.912Z,5.82
2022-12-07T05:28:17.776Z,5.30
2022-12-07T05:30:44.470Z,6.18
2022-12-07T05:33:11.385Z,5.70
2022-12-07T05:35:38.879Z,6.00
2022-12-07T05:38:05.555Z,4.45
2022-12-07T05:40:32.105Z,4.95
2022-12-07T05:43:04.536Z,5.40
2022-12-07T05:45:31.889Z,4.20
2022-12-07T05:47:58.529Z,5.15
2022-12-07T05:50:25.162Z,4.72
2022-12-07T05:53:00.857Z,4.97
2022-12-07T05:55:27.452Z,4.60
2022-12-07T05:58:12.537Z,4.68
2022-12-07T06:00:39.102Z,4.30
2022-12-07T06:03:05.859Z,3.60
2022-12-07T06:05:32.444Z,3.78
2022-12-07T06:08:04.112Z,4.43
2022-12-07T06:10:32.436Z,4.18
2022-12-07T06:12:58.983Z,4.32
2022-12-07T06:15:25.523Z,4.80
2022-12-07T06:17:52.172Z,4.63
2022-12-07T06:20:18.853Z,4.13
2022-12-07T06:22:45.447Z,3.33
2022-12-07T06:25:12.022Z,3.28
2022-12-07T06:27:38.590Z,3.03
2022-12-07T06:30:07.575Z,3.10
2022-12-07T06:32:34.745Z,2.90
2022-12-07T06:35:01.382Z,3.58
2022-12-07T06:37:28.013Z,2.67
2022-12-07T06:39:54.814Z,1.80
2022-12-07T06:42:21.354Z,3.45
2022-12-07T06:44:47.939Z,2.70
2022-12-07T06:50:01.600Z,2.33
2022-12-07T06:52:28.309Z,1.95
2022-12-07T06:54:54.900Z,2.00
2022-12-07T06:57:21.439Z,2.50
2022-12-07T06:59:47.972Z,3.83
2022-12-07T07:02:14.581Z,2.75
2022-12-07T07:04:41.167Z,2.05
2022-12-07T07:07:07.771Z,2.97
2022-12-07T07:09:34.651Z,2.22
2022-12-07T07:12:01.541Z,2.80
2022-12-07T07:14:28.133Z,2.63
2022-12-07T07:16:54.763Z,3.05
2022-12-07T07:19:21.628Z,2.30
2022-12-07T07:21:48.185Z,3.58
2022-12-07T07:24:14.962Z,3.30
2022-12-07T07:26:41.522Z,2.03
2022-12-07T07:29:08.110Z,2.42
2022-12-07T07:31:36.472Z,2.53
2022-12-07T07:34:03.117Z,2.75
2022-12-07T07:36:29.688Z,2.80
2022-12-07T07:38:56.263Z,3.13
2022-12-07T07:41:22.860Z,2.70
2022-12-07T07:43:49.430Z,2.78
2022-12-07T07:46:16.050Z,2.33
2022-12-07T07:48:42.627Z,1.67
2022-12-07T07:51:09.275Z,3.22
2022-12-07T07:53:35.906Z,2.90
2022-12-07T07:56:02.520Z,3.08
2022-12-07T07:58:29.056Z,2.88
2022-12-07T08:00:55.691Z,2.45
2022-12-07T08:03:22.367Z,2.22
2022-12-07T08:05:49.027Z,3.33
2022-12-07T08:08:15.676Z,2.97
2022-12-07T08:10:42.285Z,3.40
2022-12-07T08:13:11.703Z,3.38
2022-12-07T08:15:40.221Z,4.80
2022-12-07T08:18:06.938Z,4.40
2022-12-07T08:20:35.048Z,3.55
2022-12-07T08:23:02.102Z,4.00
2022-12-07T08:25:28.821Z,4.90
2022-12-07T08:27:55.635Z,4.95
2022-12-07T08:30:22.830Z,4.18
2022-12-07T08:32:49.747Z,4.20
2022-12-07T08:35:16.869Z,4.60
2022-12-07T08:37:43.673Z,4.90
2022-12-07T08:40:12.481Z,4.65
2022-12-07T08:42:40.967Z,3.85
2022-12-07T08:45:10.520Z,4.72
2022-12-07T08:47:39.754Z,5.40
2022-12-07T08:50:08.752Z,4.72
2022-12-07T08:52:36.996Z,5.28
2022-12-07T08:55:05.739Z,5.18
2022-12-07T08:57:35.104Z,4.25
2022-12-07T09:00:01.995Z,4.78
2022-12-07T09:02:28.893Z,4.60
2022-12-07T09:04:55.451Z,5.00
2022-12-07T09:07:22.058Z,4.20
2022-12-07T09:09:48.646Z,4.65
2022-12-07T09:12:15.188Z,4.35
2022-12-07T09:14:41.787Z,4.70
2022-12-07T09:17:10.666Z,3.30
2022-12-07T09:19:37.418Z,4.20
2022-12-07T09:22:05.766Z,4.45
2022-12-07T09:24:33.151Z,4.70
2022-12-07T09:26:59.709Z,3.85
2022-12-07T09:29:26.399Z,4.40
2022-12-07T09:31:53.734Z,3.60
2022-12-07T09:34:21.131Z,3.35
2022-12-07T09:36:47.862Z,4.10
2022-12-07T09:39:14.430Z,3.55
2022-12-07T09:41:43.838Z,3.60
2022-12-07T09:44:14.762Z,4.07
2022-12-07T09:46:43.970Z,3.55
2022-12-07T09:49:18.118Z,4.03
2022-12-07T09:51:45.176Z,3.45
2022-12-07T09:54:17.406Z,4.25
2022-12-07T09:56:45.288Z,3.72
2022-12-07T09:59:19.148Z,2.90
2022-12-07T10:01:48.540Z,2.17
2022-12-07T10:04:19.896Z,4.63
2022-12-07T10:06:47.456Z,3.53
2022-12-07T10:09:15.828Z,2.83
2022-12-07T10:12:04.887Z,3.00
2022-12-07T10:15:05.712Z,3.42
2022-12-07T10:17:48.541Z,3.50
2022-12-07T10:20:18.143Z,2.92
2022-12-07T10:22:58.397Z,3.05
2022-12-07T10:25:29.270Z,2.47
2022-12-07T10:28:17.210Z,3.22
2022-12-07T10:31:03.207Z,3.08
2022-12-07T10:33:31.083Z,2.60
2022-12-07T10:35:58.393Z,2.53
2022-12-07T10:38:27.884Z,2.97
2022-12-07T10:41:08.305Z,2.70
2022-12-07T10:43:35.185Z,2.05
2022-12-07T10:46:30.101Z,2.20
2022-12-07T10:49:08.049Z,2.65
2022-12-07T10:51:53.325Z,2.55
2022-12-07T10:54:38.210Z,2.70
2022-12-07T10:57:22.490Z,3.10
2022-12-07T11:00:01.311Z,3.03
2022-12-07T11:02:51.044Z,2.80
2022-12-07T11:05:33.882Z,3.15
2022-12-07T11:08:10.553Z,2.53
2022-12-07T11:10:45.300Z,3.17
2022-12-07T11:13:11.817Z,2.70
2022-12-07T11:16:04.419Z,3.63
2022-12-07T11:18:46.155Z,3.75
2022-12-07T11:21:27.859Z,3.63
2022-12-07T11:24:13.142Z,3.50
2022-12-07T11:26:55.290Z,3.10
2022-12-07T11:30:00.565Z,2.95
2022-12-07T11:33:10.780Z,4.25
2022-12-07T11:35:54.054Z,2.90
2022-12-07T11:38:43.828Z,2.97
2022-12-07T11:41:14.453Z,2.80
2022-12-07T11:46:17.977Z,2.78
2022-12-07T11:48:51.965Z,1.63
2022-12-07T11:51:22.047Z,2.22
2022-12-07T11:54:18.011Z,2.92
2022-12-07T11:56:46.852Z,2.30
2022-12-07T11:59:35.039Z,3.40
2022-12-07T12:02:13.715Z,2.83
2022-12-07T12:05:03.897Z,3.10
2022-12-07T12:10:33.672Z,3.35
2022-12-07T12:16:31.467Z,3.08
2022-12-07T12:19:30.054Z,3.53
2022-12-07T12:22:05.147Z,3.45
2022-12-07T12:24:37.412Z,3.47
2022-12-07T12:27:10.301Z,3.22
2022-12-07T12:29:42.720Z,3.70
2022-12-07T12:32:23.140Z,3.72
2022-12-07T12:35:00.772Z,4.18
2022-12-07T12:37:40.992Z,3.45
2022-12-07T12:40:16.852Z,3.67
2022-12-07T12:42:50.263Z,3.40
2022-12-07T12:45:31.375Z,3.55
2022-12-07T12:48:02.853Z,4.15
2022-12-07T12:50:39.405Z,2.67
2022-12-07T12:53:13.697Z,3.17
2022-12-07T12:55:43.185Z,3.13
2022-12-07T12:58:18.810Z,3.45
2022-12-07T13:00:47.826Z,2.58
2022-12-07T13:03:29.787Z,3.28
2022-12-07T13:06:36.327Z,3.00
2022-12-07T13:09:03.512Z,1.98
2022-12-07T13:11:34.387Z,2.38
2022-12-07T13:14:40.773Z,2.05
2022-12-07T13:17:33.396Z,1.15
2022-12-07T13:20:11.606Z,1.42
2022-12-07T13:22:47.886Z,1.83
2022-12-07T13:25:34.605Z,1.63
2022-12-07T13:28:16.566Z,1.48
2022-12-07T13:30:55.391Z,0.98
2022-12-07T13:33:22.055Z,0.90
2022-12-07T13:35:48.645Z,0.73
2022-12-07T13:38:29.463Z,0.70
2022-12-07T13:41:03.249Z,1.75
2022-12-07T13:43:29.836Z,1.50
2022-12-07T13:46:01.796Z,2.10
2022-12-07T13:48:47.530Z,3.10
2022-12-07T13:51:28.868Z,2.22
2022-12-07T13:54:10.511Z,2.90
2022-12-07T13:56:37.502Z,2.90
2022-12-07T13:59:13.423Z,2.88
2022-12-07T14:01:40.139Z,2.70
2022-12-07T14:04:18.954Z,2.90
2022-12-07T14:06:51.902Z,2.90
2022-12-07T14:09:23.897Z,2.58
2022-12-07T14:11:52.865Z,2.92
2022-12-07T14:14:23.497Z,2.95
2022-12-07T14:19:50.347Z,3.08
2022-12-07T14:22:24.824Z,3.47
2022-12-07T14:24:51.874Z,3.67
2022-12-07T14:27:20.882Z,4.25
2022-12-07T14:29:48.310Z,3.55
2022-12-07T14:32:30.477Z,3.60
2022-12-07T14:35:18.314Z,3.42
2022-12-07T14:37:47.794Z,2.90
2022-12-07T14:40:17.290Z,2.93
2022-12-07T14:42:47.610Z,2.80
2022-12-07T14:45:16.791Z,2.97
2022-12-07T14:50:30.516Z,2.67
2022-12-07T14:55:47.356Z,2.80
2022-12-07T14:58:16.384Z,2.65
2022-12-07T15:00:43.883Z,3.15
2022-12-07T15:03:11.158Z,2.70
2022-12-07T15:05:38.560Z,2.45
2022-12-07T15:08:05.605Z,2.72
2022-12-07T15:10:34.949Z,3.00
2022-12-07T15:13:22.681Z,2.47
2022-12-07T15:15:50.908Z,3.35
2022-12-07T15:18:18.761Z,3.70
2022-12-07T15:20:46.071Z,4.25
2022-12-07T15:23:13.666Z,3.90
2022-12-07T15:25:44.787Z,1.95
2022-12-07T15:28:11.518Z,1.55
2022-12-07T15:30:43.767Z,1.50
2022-12-07T15:33:11.486Z,1.65
2022-12-07T15:35:45.657Z,1.70
2022-12-07T15:38:12.363Z,1.88
2022-12-07T15:40:39.580Z,1.88
2022-12-07T15:43:26.137Z,2.03
2022-12-07T15:45:52.704Z,2.40
2022-12-07T15:48:27.708Z,2.30
2022-12-07T15:51:02.268Z,2.08
2022-12-07T15:53:28.799Z,2.58
2022-12-07T15:55:55.513Z,2.63
2022-12-07T15:58:22.062Z,2.85
2022-12-07T16:00:49.103Z,2.40
2022-12-07T16:03:15.751Z,3.55
2022-12-07T16:05:42.356Z,3.58
2022-12-07T16:08:08.957Z,3.40
2022-12-07T16:10:35.617Z,3.38
2022-12-07T16:13:02.196Z,3.45
2022-12-07T16:15:28.718Z,2.65
2022-12-07T16:17:56.489Z,2.40
2022-12-07T16:20:23.122Z,3.00
2022-12-07T16:22:53.201Z,2.55
2022-12-07T16:25:19.779Z,2.88
2022-12-07T16:27:46.310Z,1.70
2022-12-07T16:30:15.013Z,1.92
2022-12-07T16:32:41.598Z,3.03
2022-12-07T16:35:08.651Z,1.63
2022-12-07T16:37:35.249Z,2.08
2022-12-07T16:40:01.826Z,2.13
2022-12-07T16:42:33.335Z,1.65
2022-12-07T16:45:00.139Z,2.05
2022-12-07T16:47:27.201Z,1.70
2022-12-07T16:49:53.902Z,1.65
2022-12-07T16:52:21.765Z,1.80
2022-12-07T16:54:50.060Z,1.90
2022-12-07T16:57:22.333Z,2.20
2022-12-07T16:59:50.586Z,2.03
2022-12-07T17:02:17.206Z,2.00
2022-12-07T17:04:43.810Z,1.92
2022-12-07T17:07:11.137Z,1.80
2022-12-07T17:09:38.143Z,1.70
2022-12-07T17:12:06.908Z,1.52
2022-12-07T17:14:52.208Z,1.63
2022-12-07T17:17:18.745Z,1.70
2022-12-07T17:19:46.345Z,1.92
2022-12-07T17:22:13.811Z,2.63
2022-12-07T17:24:40.437Z,1.67
2022-12-07T17:27:07.375Z,1.73
2022-12-07T17:29:33.913Z,1.80
2022-12-07T17:32:00.599Z,1.65
2022-12-07T17:34:27.220Z,1.65
2022-12-07T17:36:55.618Z,0.88
2022-12-07T17:39:22.677Z,1.48
2022-12-07T17:42:07.819Z,1.02
2022-12-07T17:44:34.426Z,1.05
2022-12-07T17:47:03.736Z,1.00
2022-12-07T17:49:30.597Z,1.17
2022-12-07T17:52:16.252Z,1.40
2022-12-07T17:54:43.059Z,1.30
2022-12-07T17:57:09.606Z,1.38
2022-12-07T17:59:36.225Z,1.60
2022-12-07T18:02:03.187Z,1.40
2022-12-07T18:04:29.895Z,1.35
2022-12-07T18:06:56.632Z,1.80
2022-12-07T18:09:23.576Z,1.38
2022-12-07T18:11:50.155Z,1.42
2022-12-07T18:14:16.942Z,1.33
2022-12-07T18:16:44.059Z,1.10
2022-12-07T18:19:13.422Z,1.02
2022-12-07T18:21:40.549Z,1.27
2022-12-07T18:24:09.950Z,1.35
2022-12-07T18:26:37.496Z,0.80
2022-12-07T18:29:05.953Z,0.93
2022-12-07T18:31:33.823Z,1.30
2022-12-07T18:34:04.076Z,0.88
2022-12-07T18:36:31.210Z,1.05
2022-12-07T18:38:57.785Z,1.42
2022-12-07T18:41:24.315Z,1.70
2022-12-07T18:43:50.867Z,1.92
2022-12-07T18:46:20.674Z,1.33
2022-12-07T18:48:48.080Z,1.90
2022-12-07T18:51:15.465Z,1.65
2022-12-07T18:53:42.989Z,2.00
2022-12-07T18:56:13.435Z,2.00
2022-12-07T18:59:03.776Z,1.40
2022-12-07T19:01:31.436Z,0.90
2022-12-07T19:03:59.123Z,2.10
2022-12-07T19:06:26.194Z,0.75
2022-12-07T19:08:53.741Z,1.10
2022-12-07T19:11:40.857Z,1.10
2022-12-07T19:14:07.501Z,0.80
2022-12-07T19:16:34.203Z,1.15
2022-12-07T19:19:01.377Z,1.33
2022-12-07T19:21:28.773Z,1.27
2022-12-07T19:23:56.326Z,0.90
2022-12-07T19:26:23.832Z,1.50
2022-12-07T19:28:51.080Z,1.30
2022-12-07T19:31:17.980Z,1.25
2022-12-07T19:33:44.683Z,1.25
2022-12-07T19:36:11.315Z,1.40
2022-12-07T19:38:37.935Z,2.28
2022-12-07T19:41:33.064Z,1.80
2022-12-07T19:44:11.920Z,1.90
2022-12-07T19:46:39.408Z,2.35
2022-12-07T19:49:05.954Z,1.85
2022-12-07T19:51:32.743Z,2.10
2022-12-07T19:54:00.727Z,1.33
2022-12-07T19:56:29.309Z,1.60
2022-12-07T19:58:58.388Z,2.03
2022-12-07T20:01:25.027Z,2.00
2022-12-07T20:03:51.741Z,1.48
2022-12-07T20:06:19.740Z,2.88
2022-12-07T20:08:48.026Z,1.67
2022-12-07T20:11:35.600Z,2.33
2022-12-07T20:14:02.240Z,2.40
2022-12-07T20:16:28.944Z,2.00
2022-12-07T20:18:57.863Z,2.35
2022-12-07T20:21:25.229Z,1.77
2022-12-07T20:23:52.330Z,1.80
2022-12-07T20:26:19.516Z,1.73
2022-12-07T20:28:46.837Z,1.77
2022-12-07T20:31:14.861Z,1.77
2022-12-07T20:33:43.430Z,2.25
2022-12-07T20:36:10.239Z,1.88
2022-12-07T20:38:37.375Z,1.55
2022-12-07T20:41:29.128Z,2.33
2022-12-07T20:43:56.760Z,1.17
2022-12-07T20:46:23.599Z,1.55
2022-12-07T20:48:50.810Z,1.63
2022-12-07T20:51:17.741Z,1.75
2022-12-07T20:53:44.309Z,1.92
2022-12-07T20:56:24.197Z,1.83
2022-12-07T20:58:50.797Z,1.80
2022-12-07T21:01:17.396Z,2.72
2022-12-07T21:03:44.010Z,2.38
2022-12-07T21:06:14.339Z,1.67
2022-12-07T21:08:50.092Z,1.98
2022-12-07T21:11:17.998Z,2.00
2022-12-07T21:13:45.381Z,1.25
2022-12-07T21:16:18.974Z,1.90
2022-12-07T21:18:48.005Z,2.00
2022-12-07T21:21:19.180Z,1.55
2022-12-07T21:23:47.530Z,1.52
2022-12-07T21:26:17.563Z,1.45
2022-12-07T21:28:44.357Z,1.70
2022-12-07T21:31:13.305Z,1.55
2022-12-07T21:33:40.770Z,1.70
2022-12-07T21:36:09.809Z,1.75
2022-12-07T21:38:36.529Z,1.70
2022-12-07T21:41:14.207Z,1.83
2022-12-07T21:43:41.273Z,1.63
2022-12-07T21:46:08.281Z,1.92
2022-12-07T21:48:35.189Z,2.50
2022-12-07T21:51:13.327Z,2.10
2022-12-07T21:53:42.508Z,2.20
2022-12-07T21:56:31.021Z,2.00
2022-12-07T21:59:04.121Z,1.70
2022-12-07T22:01:35.595Z,2.50
2022-12-07T22:04:02.320Z,2.10
2022-12-07T22:06:29.033Z,2.53
2022-12-07T22:08:56.029Z,2.10
2022-12-07T22:11:22.798Z,2.05
2022-12-07T22:14:10.538Z,2.00
2022-12-07T22:16:39.045Z,1.63
2022-12-07T22:19:07.339Z,2.05
2022-12-07T22:21:34.465Z,1.95
2022-12-07T22:24:01.702Z,1.98
2022-12-07T22:26:28.353Z,1.65
2022-12-07T22:28:55.011Z,1.98
2022-12-07T22:31:22.450Z,1.77
2022-12-07T22:33:50.333Z,2.42
2022-12-07T22:36:17.087Z,1.80
2022-12-07T22:38:44.363Z,1.98
2022-12-07T22:41:32.348Z,1.92
2022-12-07T22:44:00.250Z,2.10
2022-12-07T22:46:27.657Z,1.83
2022-12-07T22:48:54.321Z,1.83
2022-12-07T22:51:25.120Z,1.77
2022-12-07T22:53:53.326Z,3.53
2022-12-07T22:56:20.645Z,2.08
2022-12-07T22:58:48.226Z,2.00
2022-12-07T23:01:16.993Z,2.10
2022-12-07T23:03:45.081Z,2.10
2022-12-07T23:06:17.384Z,1.70
2022-12-07T23:08:44.432Z,2.08
2022-12-07T23:11:38.406Z,2.08
2022-12-07T23:14:12.344Z,1.55
2022-12-07T23:16:39.341Z,1.77
2022-12-07T23:19:05.963Z,2.08
2022-12-07T23:21:32.614Z,1.90
2022-12-07T23:23:59.203Z,1.75
2022-12-07T23:26:26.086Z,1.80
2022-12-07T23:28:53.030Z,1.77
2022-12-07T23:31:20.950Z,1.73
2022-12-07T23:33:47.608Z,1.55
2022-12-07T23:36:17.377Z,2.03
2022-12-07T23:38:45.998Z,2.87
2022-12-07T23:41:14.806Z,2.63
2022-12-07T23:43:42.620Z,1.52
2022-12-07T23:46:13.131Z,1.48
2022-12-07T23:48:40.136Z,1.75
2022-12-07T23:51:08.170Z,2.53
2022-12-07T23:53:36.413Z,2.20
2022-12-07T23:56:04.093Z,2.10
2022-12-07T23:58:31.649Z,1.95
